Flight Briefing for CMB830

Departure Arrival
KeflavĂ­k International Airport (BIKF)
Click to view FAA NOTAMS
Joint Base McGuire Dix Lakehurst (KWRI)
Click to view FAA NOTAMS
Departure Time Arrival Time
N/A N/A
Aircraft Distance
B757-200SF 2305nm
Departure METAR Arrival METAR
BIKF 190700Z 22020KT 9999 VCSH FEW019CB BKN130 02/M01 Q0983 KWRI 190656Z AUTO 00000KT 10SM SCT085 M03/M06 A3034 RMK AO2 SLP275 T10281056
Suggested Route
RALOV1D RALOV RAKIS 6235N N6040 5944N 5650N YAY J580 YQY YQI J585 ACK J62 RIFLE J174 EMJAY HEADI


View recent IFR Routes data
Notes
USTRANSCOM CONTRACT FLIGHT

Charts and Procedures

Charts for BIKF
No chart available
Charts for KWRI
No chart available

Windy.com Weather Map